Pagina principale
METAR-TAF:

METAR-TAF

Aeroporti :

Wattisham, Inghilterra

latitudine: 52-07N, longitudine: 000-58E, altezza: 87 m

Osservazione

Il bollettino è stato emesso 1 ora e 1 minuti fa, alle 01:50 UTC
Vento 5 kt da sud/sud-ovest
Temperature 4°C
Umidità 70%
Pressione 1022 hPa
Visibilità 10 km o più

METAR: EGUW 240150Z AUTO 20005KT 9999 OVC070/// 04/M01 Q1022

Ora: 02:51 (02:51 UTC)


TAF: mancante

Osservazioni e previsioni meteorologiche di più di 4000 aeroporti (messaggi METAR e TAF).

Le stazioni disponibili sono rappresentate dai dischi gialli e rossi sulla carta.

Puntare il mouse per vedere il nome della stazione.

Clicca sopra per visualizzare le osservazioni e previsioni meteorologiche.

Per cambiare la mappa : fare clic sui pulsanti verdi con una croce nera per ingrandire, il pulsante verde con un trattino per diminuire, o sulla freccia verde per le mappe adiacenti.


METAR-TAF: